Main page
METAR-TAF:

METAR-TAF

Airports :

Kristiansand Airport. Kjevik

Kristiansand, Norway

latitude: 58-12N, longitude: 008-05E, elevation: 1 m

Current weather observation

The report was made 16 minutes ago, at 18:20 UTC
Wind 4 kt from the South, varying between South/Southeast and South/Southwest
Temperature 16°C
Humidity 72%
Pressure 1012 hPa
Visibility 10 km or more
no clouds below 1500 m and no cumulonimbus

METAR: ENCN 211820Z 18004KT 150V210 CAVOK 16/11 Q1012

Time: 20:36 (18:36 UTC)

Forecast

The report was made 4 hours and 36 minutes ago, at 14:00 UTC
Forecast valid from 21 at 15 UTC to 21 at 22 UTC
Wind 12 kt from the South
Visibility 10 km or more
no clouds below 1500 m and no cumulonimbus
Becoming
from 21 at 19 UTC to 21 at 21 UTC
Wind 5 kt from variable directions

TAF: ENCN 211400Z 2115/2122 19012KT CAVOK BECMG 2119/2121 VRB05KT

Weather observations and forecasts of more than 4000 airports (METAR and TAF reports).

The available stations are represented by yellow and red dots on the map.

Hover mouse over dot to see the name of the station.

Then click to see weather observations and forecasts.

To change the map : click on the green buttons with a black cross to zoom in, on the green button with a dash to zoom out, or on the green arrows for adjacent maps.


METAR-TAF: